Manvel, Texas
Current Conditions -  °F | °C
As of 11:19 PM on Sunday 21 Dec 2014 (Local Time) from KLVJ Reporting Station
Haze Haze  
Wind Chill: 57°   Ceiling: 4000
Heat Index: 57°   Visibility: 6mi
Dew Point: 55°   Wind: 0mph
Humidity: 93%   Direction: NA
Pressure: 29.9"   Gusts: NA
Location:  29.46°N, 95.36°W
Report Text: KLVJ 220519Z AUTO 00000KT 6SM BR SCT009 OVC040 14/13 A2990 RMK AO2 T01390128
Loading
Personal Weather Stations






























Interactive Weather Map New forecast layout! Learn more

10-Day Weather Forecast

Advertisements
Track Severe Weather on mobile